Time;durP1;ratioP1;P1;durP2;ratioP2;P2;SDS_P1;SDS_P2;PMS_P1;PMS_P2;Temp;Humidity;BMP_temperature;BMP_pressure;BME280_temperature;BME280_humidity;BME280_pressure;Samples;Min_cycle;Max_cycle;Signal;HPM_P1;HPM_P2
2023/05/04 00:01:21;;;;;;;10.68;5.93;;;;;;;;;;5075765;28;20068;-74
2023/05/04 00:03:48;;;;;;;9.65;6.47;;;;;;;;;;5077165;28;20044;-76
2023/05/04 00:06:16;;;;;;;10.77;6.10;;;;;;;;;;5076357;28;20503;-76
2023/05/04 00:08:44;;;;;;;8.68;6.45;;;;;;;;;;5077473;28;20459;-76
2023/05/04 00:11:11;;;;;;;9.80;6.68;;;;;;;;;;5077438;28;20398;-75
2023/05/04 00:13:39;;;;;;;10.80;7.07;;;;;;;;;;5097198;28;20375;-75
2023/05/04 00:16:06;;;;;;;13.35;6.40;;;;;;;;;;5096387;28;20573;-75
2023/05/04 00:18:38;;;;;;;13.57;6.60;;;;;;;;;;5097393;28;20044;-76
2023/05/04 00:21:05;;;;;;;9.40;6.80;;;;;;;;;;5097992;28;20067;-74
2023/05/04 00:23:33;;;;;;;9.65;6.80;;;;;;;;;;5097550;28;20051;-75
2023/05/04 00:26:01;;;;;;;9.30;6.40;;;;;;;;;;5096600;28;20131;-75
2023/05/04 00:28:28;;;;;;;11.80;6.90;;;;;;;;;;5097436;28;20048;-76
2023/05/04 00:30:56;;;;;;;11.73;7.40;;;;;;;;;;5112983;28;20044;-76
2023/05/04 00:33:23;;;;;;;10.77;6.93;;;;;;;;;;5097117;28;20668;-75
2023/05/04 00:35:51;;;;;;;10.07;7.22;;;;;;;;;;5096950;28;20487;-76
2023/05/04 00:38:19;;;;;;;9.05;6.45;;;;;;;;;;5096023;28;20080;-76
2023/05/04 00:40:46;;;;;;;10.65;6.53;;;;;;;;;;5112992;28;20509;-76
2023/05/04 00:43:13;;;;;;;14.50;7.70;;;;;;;;;;5097939;28;20087;-76
2023/05/04 00:45:41;;;;;;;11.15;6.97;;;;;;;;;;5112359;28;20126;-76
2023/05/04 00:48:09;;;;;;;9.27;6.60;;;;;;;;;;5112187;28;20490;-75
2023/05/04 00:50:36;;;;;;;11.35;7.15;;;;;;;;;;5095069;28;20050;-76
2023/05/04 00:53:07;;;;;;;11.77;7.13;;;;;;;;;;5112336;28;20063;-76
2023/05/04 00:55:41;;;;;;;10.85;7.05;;;;;;;;;;5095270;28;20098;-76
2023/05/04 00:58:09;;;;;;;9.73;6.03;;;;;;;;;;5096576;28;20036;-75
2023/05/04 01:00:36;;;;;;;10.75;6.35;;;;;;;;;;5112326;28;20280;-76
2023/05/04 01:03:04;;;;;;;11.40;6.47;;;;;;;;;;5095822;28;20043;-75
2023/05/04 01:05:35;;;;;;;13.50;7.03;;;;;;;;;;5096056;28;20040;-76
2023/05/04 01:08:07;;;;;;;12.02;6.68;;;;;;;;;;5095705;28;20525;-75
2023/05/04 01:10:57;;;;;;;12.15;7.40;;;;;;;;;;5095489;28;20089;-75
2023/05/04 01:13:25;;;;;;;11.73;7.28;;;;;;;;;;5095314;28;20040;-75
2023/05/04 01:15:53;;;;;;;10.80;7.07;;;;;;;;;;5111589;28;20169;-75
2023/05/04 01:18:22;;;;;;;11.45;6.93;;;;;;;;;;5095770;28;20034;-75
2023/05/04 01:20:49;;;;;;;9.85;6.72;;;;;;;;;;5094052;28;20032;-75
2023/05/04 01:23:17;;;;;;;10.65;7.30;;;;;;;;;;5094709;28;20156;-75
2023/05/04 01:25:51;;;;;;;13.70;6.97;;;;;;;;;;5094989;28;20546;-75
2023/05/04 01:28:23;;;;;;;9.38;7.00;;;;;;;;;;5110953;28;20044;-75
2023/05/04 01:30:53;;;;;;;12.05;7.65;;;;;;;;;;5094841;28;20036;-74
2023/05/04 01:33:20;;;;;;;15.88;7.53;;;;;;;;;;5110384;28;20036;-74
2023/05/04 01:35:48;;;;;;;13.70;7.70;;;;;;;;;;5093475;28;20427;-75
2023/05/04 01:38:16;;;;;;;11.15;7.03;;;;;;;;;;5094717;28;20044;-74
2023/05/04 01:40:44;;;;;;;10.00;6.95;;;;;;;;;;5094453;28;20506;-74
2023/05/04 01:43:12;;;;;;;12.70;7.32;;;;;;;;;;5110462;28;20135;-74
2023/05/04 01:45:39;;;;;;;13.25;7.15;;;;;;;;;;5110298;28;20032;-75
2023/05/04 01:48:07;;;;;;;10.75;7.20;;;;;;;;;;5110003;28;20044;-75
2023/05/04 01:50:34;;;;;;;10.43;6.70;;;;;;;;;;5110081;28;20123;-75
2023/05/04 01:53:02;;;;;;;12.32;7.43;;;;;;;;;;5110976;28;20051;-75
2023/05/04 01:55:30;;;;;;;12.20;7.25;;;;;;;;;;5111253;28;20044;-75
2023/05/04 01:57:57;;;;;;;9.13;6.47;;;;;;;;;;5096197;28;20044;-76
2023/05/04 02:00:25;;;;;;;12.68;7.05;;;;;;;;;;5094726;28;20092;-75
2023/05/04 02:02:53;;;;;;;11.57;6.70;;;;;;;;;;5093007;28;20043;-75
2023/05/04 02:05:20;;;;;;;9.60;6.78;;;;;;;;;;5095226;28;20043;-75
2023/05/04 02:07:48;;;;;;;11.60;7.03;;;;;;;;;;5110775;28;20485;-76
2023/05/04 02:10:15;;;;;;;10.02;6.05;;;;;;;;;;5094435;28;20032;-75
2023/05/04 02:12:43;;;;;;;8.15;5.50;;;;;;;;;;5111842;28;20051;-75
2023/05/04 02:15:11;;;;;;;12.38;5.50;;;;;;;;;;5110702;28;20089;-75
2023/05/04 02:17:38;;;;;;;12.73;6.07;;;;;;;;;;5094726;28;20040;-76
2023/05/04 02:20:06;;;;;;;7.75;5.30;;;;;;;;;;5114982;28;20482;-75
2023/05/04 02:22:34;;;;;;;14.07;6.32;;;;;;;;;;5097992;28;20020;-76
2023/05/04 02:25:02;;;;;;;10.45;6.28;;;;;;;;;;5094327;28;20138;-75
2023/05/04 02:27:29;;;;;;;8.48;6.13;;;;;;;;;;5111424;28;20086;-75
2023/05/04 02:29:57;;;;;;;11.95;7.45;;;;;;;;;;5094718;28;20073;-75
2023/05/04 02:32:25;;;;;;;10.93;7.07;;;;;;;;;;5113621;28;20040;-76
2023/05/04 02:34:53;;;;;;;13.20;7.25;;;;;;;;;;5099568;28;20036;-76
2023/05/04 02:37:21;;;;;;;11.73;7.68;;;;;;;;;;5097149;28;20044;-75
2023/05/04 02:39:48;;;;;;;11.30;6.40;;;;;;;;;;5093985;28;20072;-75
2023/05/04 02:42:16;;;;;;;10.52;6.40;;;;;;;;;;5093752;28;20089;-75
2023/05/04 02:44:44;;;;;;;11.38;6.65;;;;;;;;;;5094585;28;20044;-75
2023/05/04 02:47:11;;;;;;;11.60;6.80;;;;;;;;;;5093789;28;20032;-76
2023/05/04 02:49:39;;;;;;;9.50;6.65;;;;;;;;;;5095140;28;20044;-76
2023/05/04 02:52:06;;;;;;;10.55;7.03;;;;;;;;;;5093572;28;20070;-75
2023/05/04 02:54:34;;;;;;;10.23;6.38;;;;;;;;;;5093501;28;20036;-76
2023/05/04 02:57:01;;;;;;;10.05;6.07;;;;;;;;;;5110551;28;20437;-76
2023/05/04 02:59:29;;;;;;;8.45;6.00;;;;;;;;;;5093521;28;20054;-75
2023/05/04 03:01:57;;;;;;;11.90;6.38;;;;;;;;;;5095749;28;20541;-76
2023/05/04 03:04:24;;;;;;;8.02;5.78;;;;;;;;;;5094400;28;20044;-75
2023/05/04 03:06:52;;;;;;;11.48;6.40;;;;;;;;;;5111645;28;20126;-76
2023/05/04 03:09:19;;;;;;;10.02;6.65;;;;;;;;;;5095559;28;20398;-75
2023/05/04 03:11:47;;;;;;;11.07;5.93;;;;;;;;;;5111216;28;20075;-76
2023/05/04 03:14:15;;;;;;;10.48;6.75;;;;;;;;;;5110647;28;20583;-75
2023/05/04 03:16:44;;;;;;;9.55;6.40;;;;;;;;;;5112079;28;20502;-76
2023/05/04 03:19:12;;;;;;;12.13;7.20;;;;;;;;;;5082708;28;20040;-75
2023/05/04 03:21:39;;;;;;;11.00;6.45;;;;;;;;;;5093932;28;20038;-76
2023/05/04 03:24:07;;;;;;;9.20;6.28;;;;;;;;;;5111499;28;20036;-75
2023/05/04 03:26:34;;;;;;;12.38;6.93;;;;;;;;;;5094888;28;20506;-76
2023/05/04 03:29:02;;;;;;;10.55;7.00;;;;;;;;;;5094847;28;20052;-76
2023/05/04 03:31:30;;;;;;;9.15;6.10;;;;;;;;;;5078586;28;20036;-75
2023/05/04 03:33:57;;;;;;;10.43;6.53;;;;;;;;;;5095020;28;20052;-75
2023/05/04 03:36:25;;;;;;;11.68;6.05;;;;;;;;;;5094600;28;20044;-76
2023/05/04 03:38:52;;;;;;;9.30;6.15;;;;;;;;;;5111403;28;20085;-76
2023/05/04 03:41:20;;;;;;;10.63;6.15;;;;;;;;;;5095247;28;20565;-75
2023/05/04 03:43:47;;;;;;;9.93;6.03;;;;;;;;;;5112458;28;20052;-76
2023/05/04 03:46:15;;;;;;;9.82;6.28;;;;;;;;;;5110183;28;20044;-74
2023/05/04 03:48:45;;;;;;;13.65;8.43;;;;;;;;;;5092669;28;20097;-74
2023/05/04 03:51:15;;;;;;;14.02;8.43;;;;;;;;;;5092651;28;20062;-74
2023/05/04 03:53:42;;;;;;;12.35;7.50;;;;;;;;;;5093811;28;20044;-75
2023/05/04 03:56:13;;;;;;;9.65;6.55;;;;;;;;;;5110057;28;20036;-74
2023/05/04 03:58:40;;;;;;;11.45;6.03;;;;;;;;;;5109455;28;20087;-73
2023/05/04 04:01:07;;;;;;;8.63;6.25;;;;;;;;;;5093509;28;20489;-73
2023/05/04 04:03:35;;;;;;;11.73;6.35;;;;;;;;;;5111459;28;20096;-73
2023/05/04 04:06:03;;;;;;;14.27;8.15;;;;;;;;;;5094947;28;20044;-72
2023/05/04 04:08:30;;;;;;;10.15;6.53;;;;;;;;;;5114433;28;20069;-73
2023/05/04 04:10:58;;;;;;;11.48;6.00;;;;;;;;;;5112861;28;20039;-75
2023/05/04 04:13:26;;;;;;;9.75;5.80;;;;;;;;;;5094164;28;20044;-73
2023/05/04 04:15:54;;;;;;;11.82;6.55;;;;;;;;;;5113025;28;20503;-74
2023/05/04 04:18:23;;;;;;;8.00;5.70;;;;;;;;;;5094620;28;20048;-75
2023/05/04 04:20:50;;;;;;;11.48;5.93;;;;;;;;;;5112999;28;20065;-75
2023/05/04 04:23:18;;;;;;;10.38;6.90;;;;;;;;;;5113205;28;20431;-74
2023/05/04 04:25:46;;;;;;;10.52;6.97;;;;;;;;;;5114960;28;20040;-75
2023/05/04 04:28:13;;;;;;;12.93;6.22;;;;;;;;;;5115279;28;20048;-74
2023/05/04 04:30:41;;;;;;;9.63;6.78;;;;;;;;;;5098150;28;20497;-74
2023/05/04 04:33:09;;;;;;;9.95;6.60;;;;;;;;;;5116473;28;20071;-74
2023/05/04 04:35:36;;;;;;;13.77;8.93;;;;;;;;;;5098376;28;20401;-74
2023/05/04 04:38:04;;;;;;;13.60;8.10;;;;;;;;;;5116916;28;20051;-74
2023/05/04 04:40:31;;;;;;;10.20;7.15;;;;;;;;;;5097750;28;20482;-74
2023/05/04 04:42:59;;;;;;;9.02;6.70;;;;;;;;;;5097862;28;20051;-74
2023/05/04 04:45:27;;;;;;;13.23;8.77;;;;;;;;;;5097773;28;20039;-74
2023/05/04 04:47:55;;;;;;;21.35;11.48;;;;;;;;;;5115891;28;20036;-76
2023/05/04 04:50:22;;;;;;;19.50;11.50;;;;;;;;;;5115276;28;20050;-75
2023/05/04 04:52:49;;;;;;;34.97;17.92;;;;;;;;;;5115804;28;20046;-75
2023/05/04 04:55:17;;;;;;;14.02;7.97;;;;;;;;;;5116210;28;20040;-73
2023/05/04 04:57:44;;;;;;;20.23;12.15;;;;;;;;;;5097290;28;20443;-74
2023/05/04 05:00:13;;;;;;;27.58;18.90;;;;;;;;;;5116102;28;20040;-73
2023/05/04 05:02:40;;;;;;;65.72;41.03;;;;;;;;;;5095179;28;20502;-74
2023/05/04 05:05:08;;;;;;;11.63;7.03;;;;;;;;;;5083929;28;20044;-73
2023/05/04 05:07:36;;;;;;;14.00;8.85;;;;;;;;;;5091218;28;20039;-73
2023/05/04 05:10:04;;;;;;;29.58;18.98;;;;;;;;;;5077399;28;20401;-74
2023/05/04 05:12:32;;;;;;;35.75;20.27;;;;;;;;;;5095776;28;20494;-74
2023/05/04 05:14:59;;;;;;;28.38;16.90;;;;;;;;;;5095091;28;20041;-74
2023/05/04 05:17:27;;;;;;;55.47;31.00;;;;;;;;;;5095102;28;20044;-73
2023/05/04 05:19:54;;;;;;;18.63;11.45;;;;;;;;;;5095070;28;20040;-74
2023/05/04 05:22:22;;;;;;;27.30;17.30;;;;;;;;;;5077332;28;20598;-72
2023/05/04 05:24:49;;;;;;;19.33;12.50;;;;;;;;;;5095105;28;20075;-74
2023/05/04 05:27:17;;;;;;;18.20;11.52;;;;;;;;;;5095373;28;20059;-68
2023/05/04 05:29:44;;;;;;;19.40;11.65;;;;;;;;;;5095761;28;20044;-70
2023/05/04 05:32:12;;;;;;;17.35;11.45;;;;;;;;;;5095424;28;20060;-76
2023/05/04 05:34:39;;;;;;;40.67;21.83;;;;;;;;;;5094582;28;20064;-77
2023/05/04 05:37:07;;;;;;;28.30;17.10;;;;;;;;;;5093826;28;20040;-77
2023/05/04 05:39:35;;;;;;;17.80;11.65;;;;;;;;;;5094594;28;20040;-77
2023/05/04 05:42:03;;;;;;;57.85;29.45;;;;;;;;;;5095012;28;20032;-77
2023/05/04 05:44:30;;;;;;;25.38;14.35;;;;;;;;;;5084533;28;20509;-78
2023/05/04 05:46:58;;;;;;;17.75;11.55;;;;;;;;;;5074541;28;20049;-76
2023/05/04 05:49:25;;;;;;;23.88;13.25;;;;;;;;;;5074691;28;20044;-76
2023/05/04 05:51:53;;;;;;;29.70;17.05;;;;;;;;;;5073896;28;20048;-77
2023/05/04 05:54:21;;;;;;;52.67;27.38;;;;;;;;;;5074064;28;20086;-78
2023/05/04 05:56:49;;;;;;;38.75;21.17;;;;;;;;;;5074270;28;20444;-76
2023/05/04 05:59:16;;;;;;;63.53;33.90;;;;;;;;;;5074542;28;20048;-75
2023/05/04 06:01:44;;;;;;;23.33;13.75;;;;;;;;;;5056089;28;20041;-76
2023/05/04 06:04:11;;;;;;;31.48;17.05;;;;;;;;;;5073957;28;20083;-76
2023/05/04 06:06:39;;;;;;;26.45;16.23;;;;;;;;;;5072432;28;20114;-77
2023/05/04 06:09:07;;;;;;;26.50;16.05;;;;;;;;;;5073594;28;20049;-76
2023/05/04 06:11:34;;;;;;;33.55;19.27;;;;;;;;;;5073431;28;20482;-76
2023/05/04 06:14:01;;;;;;;14.23;8.20;;;;;;;;;;5074128;28;20109;-76
2023/05/04 06:16:29;;;;;;;32.45;18.20;;;;;;;;;;5072435;28;20402;-75
2023/05/04 06:18:57;;;;;;;12.43;6.90;;;;;;;;;;5089250;28;20040;-76
2023/05/04 06:21:24;;;;;;;12.75;8.63;;;;;;;;;;5073586;28;20055;-74
2023/05/04 06:23:52;;;;;;;18.15;11.73;;;;;;;;;;5073444;28;20486;-77
2023/05/04 06:26:20;;;;;;;13.02;8.65;;;;;;;;;;5073552;28;20071;-76
2023/05/04 06:28:48;;;;;;;23.27;14.02;;;;;;;;;;5083113;28;20118;-75
2023/05/04 06:31:17;;;;;;;19.58;11.85;;;;;;;;;;5084716;28;20085;-76
2023/05/04 06:33:44;;;;;;;16.30;10.48;;;;;;;;;;5072070;28;20044;-76
2023/05/04 06:36:12;;;;;;;13.43;8.38;;;;;;;;;;5092598;28;20032;-76
2023/05/04 06:38:40;;;;;;;13.50;8.07;;;;;;;;;;5078536;28;20070;-76
2023/05/04 06:41:08;;;;;;;14.65;9.00;;;;;;;;;;5073206;28;20045;-75
2023/05/04 06:43:35;;;;;;;15.63;9.43;;;;;;;;;;5073153;28;20041;-76
2023/05/04 06:46:05;;;;;;;13.77;9.02;;;;;;;;;;5073355;28;20049;-76
2023/05/04 06:48:32;;;;;;;13.73;8.07;;;;;;;;;;5072813;28;20071;-76
2023/05/04 06:51:00;;;;;;;12.55;8.05;;;;;;;;;;5073195;28;20044;-76
2023/05/04 06:53:29;;;;;;;9.88;7.15;;;;;;;;;;5071324;28;20479;-75
2023/05/04 06:55:56;;;;;;;12.40;8.95;;;;;;;;;;5073115;28;20070;-77
2023/05/04 06:58:24;;;;;;;21.58;12.45;;;;;;;;;;5072965;28;20498;-76
2023/05/04 07:00:52;;;;;;;35.28;20.88;;;;;;;;;;5071735;28;20048;-77
2023/05/04 07:03:20;;;;;;;20.30;10.60;;;;;;;;;;5071790;28;20398;-76
2023/05/04 07:05:49;;;;;;;18.73;10.30;;;;;;;;;;5073355;28;20047;-77
2023/05/04 07:08:18;;;;;;;14.73;8.52;;;;;;;;;;5071735;28;20037;-76
2023/05/04 07:10:46;;;;;;;14.15;8.27;;;;;;;;;;5073382;28;20441;-77
2023/05/04 07:13:14;;;;;;;10.40;6.63;;;;;;;;;;5072863;28;20390;-76
2023/05/04 07:15:41;;;;;;;11.73;7.22;;;;;;;;;;5072951;28;20040;-76
2023/05/04 07:18:09;;;;;;;11.27;7.53;;;;;;;;;;5072674;28;20538;-78
2023/05/04 07:20:36;;;;;;;11.93;7.45;;;;;;;;;;5088488;28;20041;-78
2023/05/04 07:23:04;;;;;;;10.13;7.40;;;;;;;;;;5072657;28;20036;-78
2023/05/04 07:25:31;;;;;;;12.98;8.35;;;;;;;;;;5072644;28;20059;-77
2023/05/04 07:27:59;;;;;;;11.68;8.77;;;;;;;;;;5072887;28;20063;-77
2023/05/04 07:30:27;;;;;;;14.18;8.50;;;;;;;;;;5072988;28;20497;-76
2023/05/04 07:32:54;;;;;;;11.18;8.10;;;;;;;;;;5072443;28;20079;-76
2023/05/04 07:35:22;;;;;;;13.77;7.78;;;;;;;;;;5072741;28;20068;-77
2023/05/04 07:37:50;;;;;;;11.57;7.50;;;;;;;;;;5072348;28;20044;-78
2023/05/04 07:40:17;;;;;;;10.85;7.03;;;;;;;;;;5072491;28;20391;-77
2023/05/04 07:42:45;;;;;;;8.65;6.97;;;;;;;;;;5072860;28;20094;-76
2023/05/04 07:45:15;;;;;;;12.60;7.72;;;;;;;;;;5072472;28;20043;-77
2023/05/04 07:47:42;;;;;;;9.15;7.70;;;;;;;;;;5072762;28;20045;-77
2023/05/04 07:50:10;;;;;;;9.35;7.03;;;;;;;;;;5072604;28;20039;-77
2023/05/04 07:52:38;;;;;;;8.63;7.07;;;;;;;;;;5087930;28;20052;-77
2023/05/04 07:55:05;;;;;;;10.35;7.40;;;;;;;;;;5072947;28;20062;-77
2023/05/04 07:57:34;;;;;;;10.07;7.60;;;;;;;;;;5088190;28;20036;-78
2023/05/04 08:00:03;;;;;;;10.93;9.77;;;;;;;;;;5073308;28;20498;-77
2023/05/04 08:02:39;;;;;;;10.70;7.32;;;;;;;;;;5076094;28;20088;-77
2023/05/04 08:05:07;;;;;;;10.32;6.85;;;;;;;;;;5076297;28;20114;-77
2023/05/04 08:07:34;;;;;;;11.25;6.90;;;;;;;;;;5076147;28;20036;-78
2023/05/04 08:10:02;;;;;;;8.88;5.85;;;;;;;;;;5076106;28;20045;-76
2023/05/04 08:12:30;;;;;;;9.73;7.40;;;;;;;;;;5076072;28;20040;-77
2023/05/04 08:14:58;;;;;;;10.35;7.20;;;;;;;;;;5091672;28;20064;-77
2023/05/04 08:17:26;;;;;;;10.57;6.63;;;;;;;;;;5091904;28;20390;-76
2023/05/04 08:19:54;;;;;;;9.35;6.15;;;;;;;;;;5091568;28;20063;-78
2023/05/04 08:22:21;;;;;;;8.15;5.30;;;;;;;;;;5076058;28;20090;-77
2023/05/04 08:24:49;;;;;;;8.93;5.80;;;;;;;;;;5058382;28;20071;-77
2023/05/04 08:27:16;;;;;;;7.57;5.45;;;;;;;;;;5076207;28;20090;-77
2023/05/04 08:29:44;;;;;;;7.70;5.38;;;;;;;;;;5074946;28;20128;-77
2023/05/04 08:32:11;;;;;;;8.50;5.68;;;;;;;;;;5091323;28;20072;-77
2023/05/04 08:34:38;;;;;;;7.97;5.07;;;;;;;;;;5058039;28;20052;-77
2023/05/04 08:37:06;;;;;;;7.18;5.32;;;;;;;;;;5075767;28;20037;-76
2023/05/04 08:39:33;;;;;;;7.90;5.68;;;;;;;;;;5057768;28;20059;-76
2023/05/04 08:42:01;;;;;;;9.18;5.82;;;;;;;;;;5075583;28;20471;-76
2023/05/04 08:44:30;;;;;;;8.68;6.00;;;;;;;;;;5075593;28;20495;-76
2023/05/04 08:46:57;;;;;;;12.05;6.70;;;;;;;;;;5075414;28;20089;-76
2023/05/04 08:49:27;;;;;;;8.05;6.60;;;;;;;;;;5091064;28;20075;-76
2023/05/04 08:51:56;;;;;;;8.98;5.68;;;;;;;;;;5074385;28;20036;-76
2023/05/04 08:54:24;;;;;;;7.30;5.57;;;;;;;;;;5090900;28;20110;-76
2023/05/04 08:56:53;;;;;;;8.32;5.80;;;;;;;;;;5075574;28;20086;-77
2023/05/04 08:59:22;;;;;;;6.95;5.38;;;;;;;;;;5075201;28;20040;-76
2023/05/04 09:01:52;;;;;;;7.47;5.80;;;;;;;;;;5074908;28;20058;-75
2023/05/04 09:04:21;;;;;;;8.43;5.90;;;;;;;;;;5089868;28;20062;-76
2023/05/04 09:06:48;;;;;;;9.18;5.78;;;;;;;;;;5089631;28;20452;-77
2023/05/04 09:09:16;;;;;;;8.02;5.70;;;;;;;;;;5074047;28;20040;-76
2023/05/04 09:11:43;;;;;;;7.88;5.72;;;;;;;;;;5073999;28;20437;-77
2023/05/04 09:14:11;;;;;;;7.57;5.38;;;;;;;;;;5074158;28;20045;-76
2023/05/04 09:16:38;;;;;;;9.82;6.80;;;;;;;;;;5073889;28;20056;-75
2023/05/04 09:19:16;;;;;;;7.35;5.28;;;;;;;;;;5074044;28;20161;-76
2023/05/04 09:21:45;;;;;;;8.13;5.85;;;;;;;;;;5056532;28;20043;-76
2023/05/04 09:24:13;;;;;;;8.60;5.53;;;;;;;;;;5073881;28;20055;-76
2023/05/04 09:26:40;;;;;;;7.72;5.65;;;;;;;;;;5056051;28;20041;-76
2023/05/04 09:29:15;;;;;;;8.57;5.65;;;;;;;;;;5073568;28;20045;-76
2023/05/04 09:31:46;;;;;;;9.18;6.25;;;;;;;;;;5073646;28;20040;-76
2023/05/04 09:34:14;;;;;;;7.97;5.70;;;;;;;;;;5073477;28;20437;-76
2023/05/04 09:36:42;;;;;;;8.95;5.63;;;;;;;;;;5089247;28;20048;-76
2023/05/04 09:39:13;;;;;;;8.15;5.85;;;;;;;;;;5055981;28;20071;-76
2023/05/04 09:41:41;;;;;;;8.30;6.38;;;;;;;;;;5074165;28;20047;-76
2023/05/04 09:44:18;;;;;;;9.05;6.38;;;;;;;;;;5056721;28;20048;-73
2023/05/04 09:46:55;;;;;;;9.00;6.43;;;;;;;;;;5074140;28;20115;-77
2023/05/04 09:49:32;;;;;;;8.70;5.50;;;;;;;;;;5073269;28;20072;-76
2023/05/04 09:52:01;;;;;;;7.15;6.07;;;;;;;;;;5073244;28;20041;-76
2023/05/04 09:54:37;;;;;;;9.95;6.03;;;;;;;;;;5073209;28;20132;-76
2023/05/04 09:57:08;;;;;;;8.90;6.50;;;;;;;;;;5088745;28;20033;-77
2023/05/04 09:59:36;;;;;;;7.32;5.85;;;;;;;;;;5073201;28;20566;-77
2023/05/04 10:02:04;;;;;;;9.88;6.00;;;;;;;;;;5009976;28;1812136;-77
2023/05/04 10:04:49;;;;;;;9.90;5.32;;;;;;;;;;5056484;28;20052;-76
2023/05/04 10:07:17;;;;;;;10.43;5.85;;;;;;;;;;5074362;28;20548;-76
2023/05/04 10:09:46;;;;;;;9.30;5.50;;;;;;;;;;5074338;28;20040;-76
2023/05/04 10:12:13;;;;;;;9.07;5.45;;;;;;;;;;5074228;28;20490;-74
2023/05/04 10:14:45;;;;;;;8.82;5.35;;;;;;;;;;5074362;28;20071;-76
2023/05/04 10:17:15;;;;;;;6.95;5.43;;;;;;;;;;5074257;28;20036;-77
2023/05/04 10:20:06;;;;;;;7.57;5.45;;;;;;;;;;5055907;28;20136;-74
2023/05/04 10:22:54;;;;;;;5.47;4.82;;;;;;;;;;5065876;28;20052;-74
2023/05/04 10:25:32;;;;;;;7.82;4.97;;;;;;;;;;5073887;28;20043;-73
2023/05/04 10:28:11;;;;;;;6.18;5.30;;;;;;;;;;5074219;28;20506;-76
2023/05/04 10:30:39;;;;;;;6.75;5.03;;;;;;;;;;5074084;28;20124;-76
2023/05/04 10:33:07;;;;;;;8.85;5.03;;;;;;;;;;5073621;28;20037;-74
2023/05/04 10:35:34;;;;;;;7.45;5.20;;;;;;;;;;5073358;28;20041;-75
2023/05/04 10:38:03;;;;;;;7.30;5.35;;;;;;;;;;5073663;28;20040;-77
2023/05/04 10:40:35;;;;;;;6.78;5.28;;;;;;;;;;5073766;28;20075;-76
2023/05/04 10:43:03;;;;;;;7.72;4.70;;;;;;;;;;5089237;28;20052;-76
2023/05/04 10:45:41;;;;;;;6.43;5.32;;;;;;;;;;5073360;28;20086;-75
2023/05/04 10:48:09;;;;;;;7.10;5.13;;;;;;;;;;5073425;28;20044;-76
2023/05/04 10:50:46;;;;;;;9.30;5.40;;;;;;;;;;5073258;28;20040;-75
2023/05/04 10:53:15;;;;;;;7.47;5.40;;;;;;;;;;5072816;28;20074;-76
2023/05/04 10:55:44;;;;;;;7.55;5.32;;;;;;;;;;5073203;28;20094;-76
2023/05/04 10:58:20;;;;;;;6.05;5.13;;;;;;;;;;5088974;28;20468;-75
2023/05/04 11:00:50;;;;;;;7.20;5.20;;;;;;;;;;5088636;28;20052;-76
2023/05/04 11:03:20;;;;;;;8.15;4.70;;;;;;;;;;5088926;28;20149;-75
2023/05/04 11:05:50;;;;;;;8.25;5.25;;;;;;;;;;5072956;28;20115;-75
2023/05/04 11:08:23;;;;;;;6.75;5.28;;;;;;;;;;5072751;28;20517;-75
2023/05/04 11:11:06;;;;;;;7.63;5.03;;;;;;;;;;5073133;28;20478;-76
2023/05/04 11:13:34;;;;;;;8.20;5.22;;;;;;;;;;5054748;28;20131;-76
2023/05/04 11:16:02;;;;;;;8.48;5.20;;;;;;;;;;5072706;28;20079;-76
2023/05/04 11:18:31;;;;;;;8.07;5.35;;;;;;;;;;5072854;28;20055;-76
2023/05/04 11:20:58;;;;;;;7.95;5.25;;;;;;;;;;5072814;28;20090;-75
2023/05/04 11:23:27;;;;;;;6.32;4.95;;;;;;;;;;5072667;28;20158;-75
2023/05/04 11:25:54;;;;;;;10.15;4.97;;;;;;;;;;5072679;28;20502;-75
2023/05/04 11:28:34;;;;;;;8.63;5.95;;;;;;;;;;5072473;28;20098;-75
2023/05/04 11:31:12;;;;;;;8.60;6.07;;;;;;;;;;5072960;28;20397;-75
2023/05/04 11:33:53;;;;;;;7.22;5.13;;;;;;;;;;5072027;28;20131;-76
2023/05/04 11:36:21;;;;;;;7.18;5.20;;;;;;;;;;5072839;28;20043;-75
2023/05/04 11:38:49;;;;;;;9.45;5.75;;;;;;;;;;5072627;28;20055;-75
2023/05/04 11:41:17;;;;;;;7.40;5.35;;;;;;;;;;5072371;28;20482;-75
2023/05/04 11:43:45;;;;;;;7.75;4.68;;;;;;;;;;5072518;28;20379;-75
2023/05/04 11:46:13;;;;;;;7.78;5.38;;;;;;;;;;5072666;28;20093;-76
2023/05/04 11:48:41;;;;;;;11.02;5.45;;;;;;;;;;5072568;28;20044;-76
2023/05/04 11:51:09;;;;;;;8.77;5.50;;;;;;;;;;5072426;28;20517;-75
2023/05/04 11:53:37;;;;;;;8.93;5.50;;;;;;;;;;5072225;28;20048;-75
2023/05/04 11:56:05;;;;;;;8.23;5.55;;;;;;;;;;5072335;28;20557;-75
2023/05/04 11:58:32;;;;;;;9.13;5.82;;;;;;;;;;5072377;28;20379;-74
2023/05/04 12:01:00;;;;;;;9.07;5.65;;;;;;;;;;5072518;28;20047;-75
2023/05/04 12:03:30;;;;;;;8.75;5.85;;;;;;;;;;5072447;28;20041;-74
2023/05/04 12:06:18;;;;;;;8.38;5.40;;;;;;;;;;5072315;28;20051;-74
2023/05/04 12:08:45;;;;;;;7.50;5.60;;;;;;;;;;5055110;28;20427;-74
2023/05/04 12:11:24;;;;;;;7.35;5.15;;;;;;;;;;5072456;28;20032;-74
2023/05/04 12:14:23;;;;;;;7.38;5.35;;;;;;;;;;5072194;28;20071;-75
2023/05/04 12:16:55;;;;;;;7.63;5.43;;;;;;;;;;5060184;28;20056;-74
2023/05/04 12:19:22;;;;;;;10.82;6.15;;;;;;;;;;5054240;28;20051;-75
2023/05/04 12:21:51;;;;;;;9.88;5.70;;;;;;;;;;5072141;28;20406;-74
2023/05/04 12:24:22;;;;;;;6.70;5.35;;;;;;;;;;5071941;28;20041;-74
2023/05/04 12:26:50;;;;;;;6.57;5.78;;;;;;;;;;5072093;28;20521;-77
2023/05/04 12:29:18;;;;;;;8.07;5.65;;;;;;;;;;5072242;28;20051;-74
2023/05/04 12:31:45;;;;;;;6.93;5.07;;;;;;;;;;5072089;28;20044;-74
2023/05/04 12:34:13;;;;;;;7.72;5.65;;;;;;;;;;5071979;28;20049;-75
2023/05/04 12:36:40;;;;;;;7.20;5.22;;;;;;;;;;5054683;28;20072;-75
2023/05/04 12:39:08;;;;;;;6.60;5.22;;;;;;;;;;5072299;28;20053;-75
2023/05/04 12:41:36;;;;;;;9.10;5.55;;;;;;;;;;5054203;28;20049;-75
2023/05/04 12:44:03;;;;;;;8.07;5.82;;;;;;;;;;5072060;28;20444;-75
2023/05/04 12:46:31;;;;;;;7.32;6.20;;;;;;;;;;5055650;28;20091;-75
2023/05/04 12:48:58;;;;;;;8.60;6.00;;;;;;;;;;5091211;28;20116;-75
2023/05/04 12:51:26;;;;;;;6.82;5.50;;;;;;;;;;5075696;28;20036;-74
2023/05/04 12:53:56;;;;;;;6.28;4.90;;;;;;;;;;5075669;28;20086;-75
2023/05/04 12:56:24;;;;;;;11.95;5.70;;;;;;;;;;5091312;28;20406;-75
2023/05/04 12:58:52;;;;;;;8.77;5.47;;;;;;;;;;5075712;28;20386;-75
2023/05/04 13:01:19;;;;;;;7.85;5.95;;;;;;;;;;5075140;28;20080;-76
2023/05/04 13:03:47;;;;;;;9.32;5.57;;;;;;;;;;5075228;28;20149;-76
2023/05/04 13:06:14;;;;;;;8.40;6.35;;;;;;;;;;5075370;28;20384;-75
2023/05/04 13:08:43;;;;;;;8.43;5.88;;;;;;;;;;5075104;28;20054;-75
2023/05/04 13:11:10;;;;;;;8.35;5.43;;;;;;;;;;5075783;28;20036;-76
2023/05/04 13:13:38;;;;;;;10.07;5.80;;;;;;;;;;5090654;28;20041;-76
2023/05/04 13:16:06;;;;;;;7.20;5.68;;;;;;;;;;5074882;28;20068;-77
2023/05/04 13:18:33;;;;;;;7.65;5.50;;;;;;;;;;5075113;28;20074;-75
2023/05/04 13:21:00;;;;;;;8.93;6.05;;;;;;;;;;5074762;28;20037;-77
2023/05/04 13:23:28;;;;;;;7.35;5.60;;;;;;;;;;5075479;28;20056;-76
2023/05/04 13:25:56;;;;;;;9.90;6.78;;;;;;;;;;5075056;28;20041;-76
2023/05/04 13:28:23;;;;;;;9.23;6.93;;;;;;;;;;5075259;28;20041;-75
2023/05/04 13:30:51;;;;;;;8.95;6.47;;;;;;;;;;5074722;28;20394;-76
2023/05/04 13:33:19;;;;;;;8.95;5.47;;;;;;;;;;5074577;28;20120;-74
2023/05/04 13:35:56;;;;;;;7.93;6.40;;;;;;;;;;5076725;28;20040;-76
2023/05/04 13:38:25;;;;;;;9.40;7.45;;;;;;;;;;5085959;28;20086;-75
2023/05/04 13:40:52;;;;;;;9.77;6.28;;;;;;;;;;5086149;28;20049;-76
2023/05/04 13:43:21;;;;;;;8.38;6.22;;;;;;;;;;5097273;28;20064;-75
2023/05/04 13:45:48;;;;;;;10.07;6.22;;;;;;;;;;5095728;28;20040;-75
2023/05/04 13:48:16;;;;;;;10.95;6.60;;;;;;;;;;5076925;28;20044;-76
2023/05/04 13:50:44;;;;;;;11.18;6.25;;;;;;;;;;5094408;28;20126;-76
2023/05/04 13:53:12;;;;;;;7.88;6.43;;;;;;;;;;5094981;28;20040;-75
2023/05/04 13:55:40;;;;;;;8.52;6.88;;;;;;;;;;5094702;28;20044;-75
2023/05/04 13:58:07;;;;;;;12.07;6.57;;;;;;;;;;5093859;28;20070;-75
2023/05/04 14:00:34;;;;;;;10.98;6.75;;;;;;;;;;5094571;28;20036;-77
2023/05/04 14:03:02;;;;;;;9.80;6.72;;;;;;;;;;5094530;28;20106;-74
2023/05/04 14:05:30;;;;;;;9.40;7.57;;;;;;;;;;5087132;28;20040;-75
2023/05/04 14:07:57;;;;;;;11.73;8.20;;;;;;;;;;5076613;28;20045;-74
2023/05/04 14:10:25;;;;;;;13.25;8.25;;;;;;;;;;5076306;28;20056;-75
2023/05/04 14:12:53;;;;;;;13.25;7.75;;;;;;;;;;5081152;28;20041;-75
2023/05/04 14:15:21;;;;;;;11.07;7.60;;;;;;;;;;5078181;28;20047;-74
2023/05/04 14:17:49;;;;;;;15.45;8.73;;;;;;;;;;5085460;28;20040;-73
2023/05/04 14:20:17;;;;;;;10.32;7.50;;;;;;;;;;5072056;28;20056;-73
2023/05/04 14:22:44;;;;;;;11.20;7.50;;;;;;;;;;5072157;28;20049;-74
2023/05/04 14:25:12;;;;;;;11.40;7.85;;;;;;;;;;5081673;28;20043;-76
2023/05/04 14:27:41;;;;;;;8.90;7.25;;;;;;;;;;5073093;28;20056;-75
2023/05/04 14:30:09;;;;;;;10.00;7.75;;;;;;;;;;5072985;28;20044;-74
2023/05/04 14:32:37;;;;;;;10.05;7.10;;;;;;;;;;5072872;28;20028;-75
2023/05/04 14:35:09;;;;;;;12.00;7.30;;;;;;;;;;5073326;28;20457;-75
2023/05/04 14:37:38;;;;;;;11.05;7.32;;;;;;;;;;5072738;28;20087;-74
2023/05/04 14:40:06;;;;;;;15.80;11.75;;;;;;;;;;5072373;28;20097;-75
2023/05/04 14:42:35;;;;;;;9.65;7.72;;;;;;;;;;5072608;28;20123;-75